sensor_id;sensor_type;location;lat;lon;timestamp;P1;durP1;ratioP1;P2;durP2;ratioP2
23179;SDS011;11758;45.756;11.432;2023-09-19T00:00:45;10.77;;;3.40;;
23179;SDS011;11758;45.756;11.432;2023-09-19T00:03:14;6.82;;;3.00;;
23179;SDS011;11758;45.756;11.432;2023-09-19T00:05:41;5.30;;;2.60;;
23179;SDS011;11758;45.756;11.432;2023-09-19T00:08:10;9.23;;;2.42;;
23179;SDS011;11758;45.756;11.432;2023-09-19T00:10:38;5.63;;;2.78;;
23179;SDS011;11758;45.756;11.432;2023-09-19T00:13:06;13.48;;;3.00;;
23179;SDS011;11758;45.756;11.432;2023-09-19T00:15:36;11.82;;;3.30;;
23179;SDS011;11758;45.756;11.432;2023-09-19T00:18:03;7.07;;;3.17;;
23179;SDS011;11758;45.756;11.432;2023-09-19T00:20:31;9.05;;;3.42;;
23179;SDS011;11758;45.756;11.432;2023-09-19T00:23:00;9.27;;;3.65;;
23179;SDS011;11758;45.756;11.432;2023-09-19T00:25:33;10.15;;;4.57;;
23179;SDS011;11758;45.756;11.432;2023-09-19T00:28:03;13.23;;;4.28;;
23179;SDS011;11758;45.756;11.432;2023-09-19T00:30:30;12.20;;;3.10;;
23179;SDS011;11758;45.756;11.432;2023-09-19T00:32:56;5.70;;;3.63;;
23179;SDS011;11758;45.756;11.432;2023-09-19T00:35:22;10.52;;;3.65;;
23179;SDS011;11758;45.756;11.432;2023-09-19T00:37:50;8.75;;;3.38;;
23179;SDS011;11758;45.756;11.432;2023-09-19T00:40:16;19.10;;;4.63;;
23179;SDS011;11758;45.756;11.432;2023-09-19T00:42:43;10.60;;;4.00;;
23179;SDS011;11758;45.756;11.432;2023-09-19T00:45:09;13.88;;;3.83;;
23179;SDS011;11758;45.756;11.432;2023-09-19T00:47:39;11.32;;;3.90;;
23179;SDS011;11758;45.756;11.432;2023-09-19T00:50:05;15.25;;;4.40;;
23179;SDS011;11758;45.756;11.432;2023-09-19T00:52:36;11.40;;;4.93;;
23179;SDS011;11758;45.756;11.432;2023-09-19T00:55:04;10.25;;;4.20;;
23179;SDS011;11758;45.756;11.432;2023-09-19T00:57:31;8.35;;;3.75;;
23179;SDS011;11758;45.756;11.432;2023-09-19T00:59:57;9.80;;;3.55;;
23179;SDS011;11758;45.756;11.432;2023-09-19T01:02:24;11.27;;;3.80;;
23179;SDS011;11758;45.756;11.432;2023-09-19T01:04:54;6.65;;;3.67;;
23179;SDS011;11758;45.756;11.432;2023-09-19T01:07:20;10.73;;;3.83;;
23179;SDS011;11758;45.756;11.432;2023-09-19T01:09:48;9.63;;;3.80;;
23179;SDS011;11758;45.756;11.432;2023-09-19T01:12:16;8.30;;;3.58;;
23179;SDS011;11758;45.756;11.432;2023-09-19T01:14:57;10.20;;;3.78;;
23179;SDS011;11758;45.756;11.432;2023-09-19T01:17:37;11.07;;;3.13;;
23179;SDS011;11758;45.756;11.432;2023-09-19T01:20:15;4.60;;;2.92;;
23179;SDS011;11758;45.756;11.432;2023-09-19T01:30:21;4.57;;;2.28;;
23179;SDS011;11758;45.756;11.432;2023-09-19T01:32:50;7.00;;;2.70;;
23179;SDS011;11758;45.756;11.432;2023-09-19T01:35:17;8.00;;;2.95;;
23179;SDS011;11758;45.756;11.432;2023-09-19T01:37:43;8.02;;;3.45;;
23179;SDS011;11758;45.756;11.432;2023-09-19T01:40:11;10.05;;;3.25;;
23179;SDS011;11758;45.756;11.432;2023-09-19T01:45:45;13.15;;;3.63;;
23179;SDS011;11758;45.756;11.432;2023-09-19T01:48:19;8.82;;;3.63;;
23179;SDS011;11758;45.756;11.432;2023-09-19T01:50:55;11.15;;;4.05;;
23179;SDS011;11758;45.756;11.432;2023-09-19T01:53:25;14.75;;;3.88;;
23179;SDS011;11758;45.756;11.432;2023-09-19T01:55:55;14.57;;;3.47;;
23179;SDS011;11758;45.756;11.432;2023-09-19T02:00:52;6.72;;;3.47;;
23179;SDS011;11758;45.756;11.432;2023-09-19T02:03:19;13.23;;;4.03;;
23179;SDS011;11758;45.756;11.432;2023-09-19T02:05:50;14.35;;;4.00;;
23179;SDS011;11758;45.756;11.432;2023-09-19T02:08:19;11.05;;;3.45;;
23179;SDS011;11758;45.756;11.432;2023-09-19T02:10:46;14.93;;;4.03;;
23179;SDS011;11758;45.756;11.432;2023-09-19T02:13:16;9.30;;;2.97;;
23179;SDS011;11758;45.756;11.432;2023-09-19T02:15:43;10.38;;;2.90;;
23179;SDS011;11758;45.756;11.432;2023-09-19T02:18:12;6.25;;;2.78;;
23179;SDS011;11758;45.756;11.432;2023-09-19T02:20:40;6.60;;;3.05;;
23179;SDS011;11758;45.756;11.432;2023-09-19T02:23:08;5.35;;;2.55;;
23179;SDS011;11758;45.756;11.432;2023-09-19T02:25:36;15.68;;;2.33;;
23179;SDS011;11758;45.756;11.432;2023-09-19T02:28:03;8.30;;;2.50;;
23179;SDS011;11758;45.756;11.432;2023-09-19T02:30:30;9.65;;;2.63;;
23179;SDS011;11758;45.756;11.432;2023-09-19T02:32:56;5.57;;;2.40;;
23179;SDS011;11758;45.756;11.432;2023-09-19T02:35:23;6.45;;;2.53;;
23179;SDS011;11758;45.756;11.432;2023-09-19T02:37:51;11.20;;;2.78;;
23179;SDS011;11758;45.756;11.432;2023-09-19T02:40:17;12.05;;;2.60;;
23179;SDS011;11758;45.756;11.432;2023-09-19T02:42:55;8.50;;;2.72;;
23179;SDS011;11758;45.756;11.432;2023-09-19T02:45:21;3.55;;;2.50;;
23179;SDS011;11758;45.756;11.432;2023-09-19T02:47:48;6.68;;;2.40;;
23179;SDS011;11758;45.756;11.432;2023-09-19T02:50:15;4.22;;;2.33;;
23179;SDS011;11758;45.756;11.432;2023-09-19T02:52:41;8.52;;;2.40;;
23179;SDS011;11758;45.756;11.432;2023-09-19T02:55:14;6.75;;;2.70;;
23179;SDS011;11758;45.756;11.432;2023-09-19T02:57:48;7.25;;;2.45;;
23179;SDS011;11758;45.756;11.432;2023-09-19T03:00:16;18.88;;;3.00;;
23179;SDS011;11758;45.756;11.432;2023-09-19T03:02:46;5.38;;;2.30;;
23179;SDS011;11758;45.756;11.432;2023-09-19T03:05:13;10.02;;;3.25;;
23179;SDS011;11758;45.756;11.432;2023-09-19T03:07:39;8.43;;;2.90;;
23179;SDS011;11758;45.756;11.432;2023-09-19T03:10:08;12.32;;;2.50;;
23179;SDS011;11758;45.756;11.432;2023-09-19T03:12:34;9.57;;;2.50;;
23179;SDS011;11758;45.756;11.432;2023-09-19T03:15:01;4.97;;;2.28;;
23179;SDS011;11758;45.756;11.432;2023-09-19T03:17:29;10.32;;;2.78;;
23179;SDS011;11758;45.756;11.432;2023-09-19T03:19:55;6.03;;;2.38;;
23179;SDS011;11758;45.756;11.432;2023-09-19T03:22:22;3.67;;;2.33;;
23179;SDS011;11758;45.756;11.432;2023-09-19T03:24:50;4.13;;;2.50;;
23179;SDS011;11758;45.756;11.432;2023-09-19T03:27:17;7.75;;;2.67;;
23179;SDS011;11758;45.756;11.432;2023-09-19T03:29:43;9.55;;;2.85;;
23179;SDS011;11758;45.756;11.432;2023-09-19T03:32:09;9.00;;;2.78;;
23179;SDS011;11758;45.756;11.432;2023-09-19T03:34:39;10.82;;;2.92;;
23179;SDS011;11758;45.756;11.432;2023-09-19T03:37:05;9.10;;;3.17;;
23179;SDS011;11758;45.756;11.432;2023-09-19T03:39:32;6.40;;;3.50;;
23179;SDS011;11758;45.756;11.432;2023-09-19T03:41:58;9.60;;;3.33;;
23179;SDS011;11758;45.756;11.432;2023-09-19T03:44:24;8.00;;;3.08;;
23179;SDS011;11758;45.756;11.432;2023-09-19T03:46:50;7.03;;;2.05;;
23179;SDS011;11758;45.756;11.432;2023-09-19T03:49:16;5.90;;;2.30;;
23179;SDS011;11758;45.756;11.432;2023-09-19T03:51:42;3.88;;;1.70;;
23179;SDS011;11758;45.756;11.432;2023-09-19T03:54:08;6.15;;;2.05;;
23179;SDS011;11758;45.756;11.432;2023-09-19T03:56:35;14.18;;;2.33;;
23179;SDS011;11758;45.756;11.432;2023-09-19T03:59:01;5.57;;;1.70;;
23179;SDS011;11758;45.756;11.432;2023-09-19T04:01:28;3.50;;;1.73;;
23179;SDS011;11758;45.756;11.432;2023-09-19T04:03:57;2.88;;;1.80;;
23179;SDS011;11758;45.756;11.432;2023-09-19T04:06:23;2.95;;;1.90;;
23179;SDS011;11758;45.756;11.432;2023-09-19T04:08:50;2.53;;;1.52;;
23179;SDS011;11758;45.756;11.432;2023-09-19T04:11:17;1.48;;;1.25;;
23179;SDS011;11758;45.756;11.432;2023-09-19T04:13:44;1.80;;;1.30;;
23179;SDS011;11758;45.756;11.432;2023-09-19T04:16:10;3.95;;;1.10;;
23179;SDS011;11758;45.756;11.432;2023-09-19T04:18:36;5.03;;;1.40;;
23179;SDS011;11758;45.756;11.432;2023-09-19T04:21:04;1.98;;;1.42;;
23179;SDS011;11758;45.756;11.432;2023-09-19T04:23:31;5.25;;;1.45;;
23179;SDS011;11758;45.756;11.432;2023-09-19T04:25:57;3.70;;;1.17;;
23179;SDS011;11758;45.756;11.432;2023-09-19T04:28:24;4.07;;;1.45;;
23179;SDS011;11758;45.756;11.432;2023-09-19T04:30:50;1.60;;;1.30;;
23179;SDS011;11758;45.756;11.432;2023-09-19T04:33:17;4.85;;;1.27;;
23179;SDS011;11758;45.756;11.432;2023-09-19T04:35:48;3.97;;;1.52;;
23179;SDS011;11758;45.756;11.432;2023-09-19T04:38:16;1.85;;;1.20;;
23179;SDS011;11758;45.756;11.432;2023-09-19T04:40:43;1.10;;;1.10;;
23179;SDS011;11758;45.756;11.432;2023-09-19T04:43:13;3.97;;;1.60;;
23179;SDS011;11758;45.756;11.432;2023-09-19T04:45:40;2.28;;;1.23;;
23179;SDS011;11758;45.756;11.432;2023-09-19T04:48:07;4.00;;;1.20;;
23179;SDS011;11758;45.756;11.432;2023-09-19T04:50:33;2.88;;;1.52;;
23179;SDS011;11758;45.756;11.432;2023-09-19T04:53:00;1.70;;;1.30;;
23179;SDS011;11758;45.756;11.432;2023-09-19T04:55:26;4.50;;;1.83;;
23179;SDS011;11758;45.756;11.432;2023-09-19T04:57:52;1.38;;;1.20;;
23179;SDS011;11758;45.756;11.432;2023-09-19T05:00:20;2.95;;;1.48;;
23179;SDS011;11758;45.756;11.432;2023-09-19T05:02:50;6.95;;;1.50;;
23179;SDS011;11758;45.756;11.432;2023-09-19T05:05:16;7.85;;;1.77;;
23179;SDS011;11758;45.756;11.432;2023-09-19T05:07:43;7.45;;;2.60;;
23179;SDS011;11758;45.756;11.432;2023-09-19T05:10:10;9.73;;;2.63;;
23179;SDS011;11758;45.756;11.432;2023-09-19T05:12:37;6.25;;;2.80;;
23179;SDS011;11758;45.756;11.432;2023-09-19T05:15:06;3.38;;;2.20;;
23179;SDS011;11758;45.756;11.432;2023-09-19T05:17:33;12.55;;;3.40;;
23179;SDS011;11758;45.756;11.432;2023-09-19T05:19:59;10.95;;;3.00;;
23179;SDS011;11758;45.756;11.432;2023-09-19T05:22:36;11.77;;;3.28;;
23179;SDS011;11758;45.756;11.432;2023-09-19T05:25:05;5.32;;;2.42;;
23179;SDS011;11758;45.756;11.432;2023-09-19T05:27:32;7.32;;;2.50;;
23179;SDS011;11758;45.756;11.432;2023-09-19T05:29:58;6.70;;;2.33;;
23179;SDS011;11758;45.756;11.432;2023-09-19T05:32:25;6.72;;;2.50;;
23179;SDS011;11758;45.756;11.432;2023-09-19T05:34:51;7.63;;;2.47;;
23179;SDS011;11758;45.756;11.432;2023-09-19T05:37:18;9.60;;;2.83;;
23179;SDS011;11758;45.756;11.432;2023-09-19T05:39:45;6.03;;;2.50;;
23179;SDS011;11758;45.756;11.432;2023-09-19T05:42:11;11.73;;;2.42;;
23179;SDS011;11758;45.756;11.432;2023-09-19T05:44:37;12.75;;;2.70;;
23179;SDS011;11758;45.756;11.432;2023-09-19T05:47:03;12.38;;;3.10;;
23179;SDS011;11758;45.756;11.432;2023-09-19T05:49:29;5.32;;;3.03;;
23179;SDS011;11758;45.756;11.432;2023-09-19T05:51:56;10.25;;;2.72;;
23179;SDS011;11758;45.756;11.432;2023-09-19T05:54:24;3.50;;;2.20;;
23179;SDS011;11758;45.756;11.432;2023-09-19T05:56:50;7.05;;;2.90;;
23179;SDS011;11758;45.756;11.432;2023-09-19T05:59:18;11.63;;;2.90;;
23179;SDS011;11758;45.756;11.432;2023-09-19T06:01:44;6.68;;;2.70;;
23179;SDS011;11758;45.756;11.432;2023-09-19T06:04:12;5.85;;;2.85;;
23179;SDS011;11758;45.756;11.432;2023-09-19T06:06:38;10.80;;;3.05;;
23179;SDS011;11758;45.756;11.432;2023-09-19T06:09:05;6.60;;;2.70;;
23179;SDS011;11758;45.756;11.432;2023-09-19T06:11:35;8.60;;;2.75;;
23179;SDS011;11758;45.756;11.432;2023-09-19T06:14:02;10.63;;;3.08;;
23179;SDS011;11758;45.756;11.432;2023-09-19T06:16:28;13.00;;;3.58;;
23179;SDS011;11758;45.756;11.432;2023-09-19T06:18:55;16.05;;;3.08;;
23179;SDS011;11758;45.756;11.432;2023-09-19T06:21:22;7.10;;;2.65;;
23179;SDS011;11758;45.756;11.432;2023-09-19T06:23:48;12.27;;;2.95;;
23179;SDS011;11758;45.756;11.432;2023-09-19T06:26:14;13.25;;;3.08;;
23179;SDS011;11758;45.756;11.432;2023-09-19T06:28:41;5.28;;;2.78;;
23179;SDS011;11758;45.756;11.432;2023-09-19T06:31:07;13.52;;;5.00;;
23179;SDS011;11758;45.756;11.432;2023-09-19T06:33:38;7.90;;;2.95;;
23179;SDS011;11758;45.756;11.432;2023-09-19T06:36:07;11.50;;;3.38;;
23179;SDS011;11758;45.756;11.432;2023-09-19T06:38:33;9.77;;;2.83;;
23179;SDS011;11758;45.756;11.432;2023-09-19T06:41:01;8.73;;;2.47;;
23179;SDS011;11758;45.756;11.432;2023-09-19T06:43:30;6.18;;;2.42;;
23179;SDS011;11758;45.756;11.432;2023-09-19T06:45:56;6.30;;;2.95;;
23179;SDS011;11758;45.756;11.432;2023-09-19T06:48:23;8.63;;;2.90;;
23179;SDS011;11758;45.756;11.432;2023-09-19T06:50:54;4.25;;;2.67;;
23179;SDS011;11758;45.756;11.432;2023-09-19T06:53:20;16.88;;;2.90;;
23179;SDS011;11758;45.756;11.432;2023-09-19T06:55:49;13.23;;;3.25;;
23179;SDS011;11758;45.756;11.432;2023-09-19T06:58:15;8.18;;;2.90;;
23179;SDS011;11758;45.756;11.432;2023-09-19T07:00:42;10.55;;;3.50;;
23179;SDS011;11758;45.756;11.432;2023-09-19T07:03:08;13.88;;;3.90;;
23179;SDS011;11758;45.756;11.432;2023-09-19T07:05:36;13.93;;;4.00;;
23179;SDS011;11758;45.756;11.432;2023-09-19T07:08:04;11.63;;;3.95;;
23179;SDS011;11758;45.756;11.432;2023-09-19T07:10:31;7.93;;;3.38;;
23179;SDS011;11758;45.756;11.432;2023-09-19T07:13:01;10.30;;;3.75;;
23179;SDS011;11758;45.756;11.432;2023-09-19T07:15:28;7.50;;;3.42;;
23179;SDS011;11758;45.756;11.432;2023-09-19T07:17:55;12.50;;;3.97;;
23179;SDS011;11758;45.756;11.432;2023-09-19T07:20:22;10.85;;;4.13;;
23179;SDS011;11758;45.756;11.432;2023-09-19T07:22:51;6.35;;;3.70;;
23179;SDS011;11758;45.756;11.432;2023-09-19T07:25:20;9.80;;;4.35;;
23179;SDS011;11758;45.756;11.432;2023-09-19T07:27:46;13.18;;;3.70;;
23179;SDS011;11758;45.756;11.432;2023-09-19T07:30:12;14.20;;;4.07;;
23179;SDS011;11758;45.756;11.432;2023-09-19T07:32:40;13.15;;;4.10;;
23179;SDS011;11758;45.756;11.432;2023-09-19T07:35:06;10.65;;;4.60;;
23179;SDS011;11758;45.756;11.432;2023-09-19T07:37:32;9.10;;;3.72;;
23179;SDS011;11758;45.756;11.432;2023-09-19T07:39:59;8.85;;;3.92;;
23179;SDS011;11758;45.756;11.432;2023-09-19T07:42:26;8.50;;;3.85;;
23179;SDS011;11758;45.756;11.432;2023-09-19T07:44:52;6.32;;;3.17;;
23179;SDS011;11758;45.756;11.432;2023-09-19T07:47:19;15.57;;;4.43;;
23179;SDS011;11758;45.756;11.432;2023-09-19T07:49:46;11.88;;;4.10;;
23179;SDS011;11758;45.756;11.432;2023-09-19T07:52:13;8.88;;;3.90;;
23179;SDS011;11758;45.756;11.432;2023-09-19T07:54:40;8.63;;;3.90;;
23179;SDS011;11758;45.756;11.432;2023-09-19T07:57:09;9.02;;;3.70;;
23179;SDS011;11758;45.756;11.432;2023-09-19T07:59:36;12.40;;;3.78;;
23179;SDS011;11758;45.756;11.432;2023-09-19T08:02:03;7.07;;;3.53;;
23179;SDS011;11758;45.756;11.432;2023-09-19T08:04:29;15.05;;;4.15;;
23179;SDS011;11758;45.756;11.432;2023-09-19T08:06:58;10.32;;;4.03;;
23179;SDS011;11758;45.756;11.432;2023-09-19T08:09:25;10.32;;;3.63;;
23179;SDS011;11758;45.756;11.432;2023-09-19T08:11:52;9.63;;;3.60;;
23179;SDS011;11758;45.756;11.432;2023-09-19T08:14:19;13.20;;;3.28;;
23179;SDS011;11758;45.756;11.432;2023-09-19T08:16:45;7.15;;;3.50;;
23179;SDS011;11758;45.756;11.432;2023-09-19T08:19:11;8.50;;;3.35;;
23179;SDS011;11758;45.756;11.432;2023-09-19T08:21:37;5.88;;;3.35;;
23179;SDS011;11758;45.756;11.432;2023-09-19T08:24:04;9.98;;;3.88;;
23179;SDS011;11758;45.756;11.432;2023-09-19T08:26:30;12.65;;;3.88;;
23179;SDS011;11758;45.756;11.432;2023-09-19T08:28:57;8.48;;;3.80;;
23179;SDS011;11758;45.756;11.432;2023-09-19T08:31:24;8.63;;;3.65;;
23179;SDS011;11758;45.756;11.432;2023-09-19T08:33:50;8.95;;;3.78;;
23179;SDS011;11758;45.756;11.432;2023-09-19T08:36:18;15.10;;;3.92;;
23179;SDS011;11758;45.756;11.432;2023-09-19T08:38:44;14.13;;;3.80;;
23179;SDS011;11758;45.756;11.432;2023-09-19T08:41:10;9.27;;;3.53;;
23179;SDS011;11758;45.756;11.432;2023-09-19T08:43:36;9.05;;;3.70;;
23179;SDS011;11758;45.756;11.432;2023-09-19T08:46:03;9.25;;;3.80;;
23179;SDS011;11758;45.756;11.432;2023-09-19T08:48:33;12.70;;;3.45;;
23179;SDS011;11758;45.756;11.432;2023-09-19T08:51:03;9.70;;;3.38;;
23179;SDS011;11758;45.756;11.432;2023-09-19T08:53:50;11.27;;;2.83;;
23179;SDS011;11758;45.756;11.432;2023-09-19T08:56:17;5.15;;;3.10;;
23179;SDS011;11758;45.756;11.432;2023-09-19T09:01:20;4.82;;;2.72;;
23179;SDS011;11758;45.756;11.432;2023-09-19T09:03:57;10.93;;;2.70;;
23179;SDS011;11758;45.756;11.432;2023-09-19T09:06:24;5.75;;;2.75;;
23179;SDS011;11758;45.756;11.432;2023-09-19T09:08:51;6.40;;;2.67;;
23179;SDS011;11758;45.756;11.432;2023-09-19T09:11:18;15.55;;;2.85;;
23179;SDS011;11758;45.756;11.432;2023-09-19T09:13:44;6.50;;;2.75;;
23179;SDS011;11758;45.756;11.432;2023-09-19T09:16:11;4.35;;;3.17;;
23179;SDS011;11758;45.756;11.432;2023-09-19T09:18:38;10.35;;;3.30;;
23179;SDS011;11758;45.756;11.432;2023-09-19T09:21:05;6.35;;;3.00;;
23179;SDS011;11758;45.756;11.432;2023-09-19T09:23:31;5.85;;;2.80;;
23179;SDS011;11758;45.756;11.432;2023-09-19T09:25:58;8.55;;;3.30;;
23179;SDS011;11758;45.756;11.432;2023-09-19T09:28:28;8.45;;;3.00;;
23179;SDS011;11758;45.756;11.432;2023-09-19T09:30:55;4.38;;;2.72;;
23179;SDS011;11758;45.756;11.432;2023-09-19T09:33:23;8.20;;;3.10;;
23179;SDS011;11758;45.756;11.432;2023-09-19T09:35:53;9.70;;;2.95;;
23179;SDS011;11758;45.756;11.432;2023-09-19T09:38:26;7.30;;;2.72;;
23179;SDS011;11758;45.756;11.432;2023-09-19T09:40:57;7.10;;;2.38;;
23179;SDS011;11758;45.756;11.432;2023-09-19T09:43:31;7.07;;;3.03;;
23179;SDS011;11758;45.756;11.432;2023-09-19T09:46:14;9.43;;;2.70;;
23179;SDS011;11758;45.756;11.432;2023-09-19T09:49:04;7.50;;;2.78;;
23179;SDS011;11758;45.756;11.432;2023-09-19T09:51:58;14.18;;;3.30;;
23179;SDS011;11758;45.756;11.432;2023-09-19T09:54:26;11.55;;;2.80;;
23179;SDS011;11758;45.756;11.432;2023-09-19T09:57:00;7.60;;;2.60;;
23179;SDS011;11758;45.756;11.432;2023-09-19T09:59:48;5.72;;;2.95;;
23179;SDS011;11758;45.756;11.432;2023-09-19T10:02:15;3.47;;;2.38;;
23179;SDS011;11758;45.756;11.432;2023-09-19T10:04:54;3.70;;;2.45;;
23179;SDS011;11758;45.756;11.432;2023-09-19T10:07:32;4.47;;;2.47;;
23179;SDS011;11758;45.756;11.432;2023-09-19T10:10:04;4.57;;;2.13;;
23179;SDS011;11758;45.756;11.432;2023-09-19T10:12:49;6.40;;;2.40;;
23179;SDS011;11758;45.756;11.432;2023-09-19T10:15:21;11.02;;;2.70;;
23179;SDS011;11758;45.756;11.432;2023-09-19T10:17:56;8.23;;;2.83;;
23179;SDS011;11758;45.756;11.432;2023-09-19T10:20:24;8.60;;;3.25;;
23179;SDS011;11758;45.756;11.432;2023-09-19T10:23:08;6.57;;;2.60;;
23179;SDS011;11758;45.756;11.432;2023-09-19T10:25:42;7.00;;;2.85;;
23179;SDS011;11758;45.756;11.432;2023-09-19T10:28:12;8.60;;;3.10;;
23179;SDS011;11758;45.756;11.432;2023-09-19T10:30:42;10.10;;;3.25;;
23179;SDS011;11758;45.756;11.432;2023-09-19T10:33:13;9.57;;;3.58;;
23179;SDS011;11758;45.756;11.432;2023-09-19T10:35:44;4.15;;;2.80;;
23179;SDS011;11758;45.756;11.432;2023-09-19T10:38:11;7.88;;;3.17;;
23179;SDS011;11758;45.756;11.432;2023-09-19T10:40:38;4.85;;;2.33;;
23179;SDS011;11758;45.756;11.432;2023-09-19T10:43:20;4.03;;;2.50;;
23179;SDS011;11758;45.756;11.432;2023-09-19T10:45:47;6.88;;;2.78;;
23179;SDS011;11758;45.756;11.432;2023-09-19T10:48:18;3.75;;;2.35;;
23179;SDS011;11758;45.756;11.432;2023-09-19T10:50:57;5.88;;;3.35;;
23179;SDS011;11758;45.756;11.432;2023-09-19T10:53:29;8.43;;;2.70;;
23179;SDS011;11758;45.756;11.432;2023-09-19T10:55:58;7.13;;;3.60;;
23179;SDS011;11758;45.756;11.432;2023-09-19T10:58:29;9.23;;;3.60;;
23179;SDS011;11758;45.756;11.432;2023-09-19T11:01:00;4.13;;;3.58;;
23179;SDS011;11758;45.756;11.432;2023-09-19T11:03:37;13.40;;;4.38;;
23179;SDS011;11758;45.756;11.432;2023-09-19T11:08:50;6.72;;;4.18;;
23179;SDS011;11758;45.756;11.432;2023-09-19T11:14:37;6.80;;;2.90;;
23179;SDS011;11758;45.756;11.432;2023-09-19T11:22:21;8.35;;;3.65;;
23179;SDS011;11758;45.756;11.432;2023-09-19T11:24:49;12.65;;;3.90;;
23179;SDS011;11758;45.756;11.432;2023-09-19T11:27:16;5.97;;;3.85;;
23179;SDS011;11758;45.756;11.432;2023-09-19T11:29:43;12.60;;;3.50;;
23179;SDS011;11758;45.756;11.432;2023-09-19T11:32:10;11.55;;;4.35;;
23179;SDS011;11758;45.756;11.432;2023-09-19T11:42:44;14.38;;;5.10;;
23179;SDS011;11758;45.756;11.432;2023-09-19T11:47:58;5.72;;;4.40;;
23179;SDS011;11758;45.756;11.432;2023-09-19T11:50:25;8.23;;;4.93;;
23179;SDS011;11758;45.756;11.432;2023-09-19T11:52:53;6.85;;;4.68;;
23179;SDS011;11758;45.756;11.432;2023-09-19T11:55:20;5.40;;;3.30;;
23179;SDS011;11758;45.756;11.432;2023-09-19T11:57:50;6.13;;;4.05;;
23179;SDS011;11758;45.756;11.432;2023-09-19T12:00:19;7.35;;;4.20;;
23179;SDS011;11758;45.756;11.432;2023-09-19T12:02:47;7.95;;;4.28;;
23179;SDS011;11758;45.756;11.432;2023-09-19T12:05:17;6.15;;;3.95;;
23179;SDS011;11758;45.756;11.432;2023-09-19T12:07:47;10.20;;;4.47;;
23179;SDS011;11758;45.756;11.432;2023-09-19T12:10:13;5.85;;;3.58;;
23179;SDS011;11758;45.756;11.432;2023-09-19T12:12:46;8.18;;;4.68;;
23179;SDS011;11758;45.756;11.432;2023-09-19T12:15:28;8.50;;;4.03;;
23179;SDS011;11758;45.756;11.432;2023-09-19T12:18:05;4.95;;;3.30;;
23179;SDS011;11758;45.756;11.432;2023-09-19T12:20:45;8.48;;;4.40;;
23179;SDS011;11758;45.756;11.432;2023-09-19T12:23:15;7.22;;;4.00;;
23179;SDS011;11758;45.756;11.432;2023-09-19T12:25:43;11.05;;;4.28;;
23179;SDS011;11758;45.756;11.432;2023-09-19T12:28:14;8.30;;;4.05;;
23179;SDS011;11758;45.756;11.432;2023-09-19T12:30:41;5.03;;;3.65;;
23179;SDS011;11758;45.756;11.432;2023-09-19T12:33:20;8.70;;;3.97;;
23179;SDS011;11758;45.756;11.432;2023-09-19T12:35:50;8.00;;;4.82;;
23179;SDS011;11758;45.756;11.432;2023-09-19T12:38:24;5.80;;;4.65;;
23179;SDS011;11758;45.756;11.432;2023-09-19T12:40:56;7.60;;;4.18;;
23179;SDS011;11758;45.756;11.432;2023-09-19T12:43:25;10.13;;;4.25;;
23179;SDS011;11758;45.756;11.432;2023-09-19T12:45:52;6.75;;;3.85;;
23179;SDS011;11758;45.756;11.432;2023-09-19T12:51:12;6.20;;;3.65;;
23179;SDS011;11758;45.756;11.432;2023-09-19T12:53:43;4.38;;;3.50;;
23179;SDS011;11758;45.756;11.432;2023-09-19T12:56:15;5.22;;;3.80;;
23179;SDS011;11758;45.756;11.432;2023-09-19T12:58:54;5.68;;;4.03;;
23179;SDS011;11758;45.756;11.432;2023-09-19T13:01:24;8.77;;;3.20;;
23179;SDS011;11758;45.756;11.432;2023-09-19T13:06:47;10.85;;;3.80;;
23179;SDS011;11758;45.756;11.432;2023-09-19T13:09:17;4.18;;;3.25;;
23179;SDS011;11758;45.756;11.432;2023-09-19T13:11:43;3.42;;;2.97;;
23179;SDS011;11758;45.756;11.432;2023-09-19T13:16:53;5.78;;;3.42;;
23179;SDS011;11758;45.756;11.432;2023-09-19T13:22:02;6.22;;;2.83;;
23179;SDS011;11758;45.756;11.432;2023-09-19T13:24:28;5.63;;;3.03;;
23179;SDS011;11758;45.756;11.432;2023-09-19T13:26:56;2.60;;;2.40;;
23179;SDS011;11758;45.756;11.432;2023-09-19T13:29:22;5.63;;;2.72;;
23179;SDS011;11758;45.756;11.432;2023-09-19T13:31:49;3.47;;;2.78;;
23179;SDS011;11758;45.756;11.432;2023-09-19T13:34:18;9.13;;;3.00;;
23179;SDS011;11758;45.756;11.432;2023-09-19T13:36:45;5.15;;;2.45;;
23179;SDS011;11758;45.756;11.432;2023-09-19T13:39:15;3.63;;;2.78;;
23179;SDS011;11758;45.756;11.432;2023-09-19T13:41:47;6.57;;;2.28;;
23179;SDS011;11758;45.756;11.432;2023-09-19T13:44:13;2.95;;;2.63;;
23179;SDS011;11758;45.756;11.432;2023-09-19T13:46:41;4.55;;;2.58;;
23179;SDS011;11758;45.756;11.432;2023-09-19T13:49:10;3.63;;;2.55;;
23179;SDS011;11758;45.756;11.432;2023-09-19T13:51:37;4.65;;;2.97;;
23179;SDS011;11758;45.756;11.432;2023-09-19T13:54:03;4.30;;;3.00;;
23179;SDS011;11758;45.756;11.432;2023-09-19T13:56:29;7.15;;;3.30;;
23179;SDS011;11758;45.756;11.432;2023-09-19T13:58:57;3.08;;;2.80;;
23179;SDS011;11758;45.756;11.432;2023-09-19T14:01:23;3.63;;;2.72;;
23179;SDS011;11758;45.756;11.432;2023-09-19T14:03:50;5.70;;;3.03;;
23179;SDS011;11758;45.756;11.432;2023-09-19T14:06:19;6.15;;;2.90;;
23179;SDS011;11758;45.756;11.432;2023-09-19T14:08:45;9.02;;;3.75;;
23179;SDS011;11758;45.756;11.432;2023-09-19T14:11:15;7.72;;;3.25;;
23179;SDS011;11758;45.756;11.432;2023-09-19T14:13:43;3.63;;;2.90;;
23179;SDS011;11758;45.756;11.432;2023-09-19T14:16:13;7.72;;;3.65;;
23179;SDS011;11758;45.756;11.432;2023-09-19T14:18:39;4.70;;;2.90;;
23179;SDS011;11758;45.756;11.432;2023-09-19T14:21:07;3.72;;;2.90;;
23179;SDS011;11758;45.756;11.432;2023-09-19T14:23:36;2.67;;;2.50;;
23179;SDS011;11758;45.756;11.432;2023-09-19T14:26:02;3.38;;;2.83;;
23179;SDS011;11758;45.756;11.432;2023-09-19T14:28:30;5.13;;;2.97;;
23179;SDS011;11758;45.756;11.432;2023-09-19T14:30:56;7.47;;;3.10;;
23179;SDS011;11758;45.756;11.432;2023-09-19T14:33:24;5.40;;;3.20;;
23179;SDS011;11758;45.756;11.432;2023-09-19T14:35:50;4.80;;;3.53;;
23179;SDS011;11758;45.756;11.432;2023-09-19T14:38:16;3.50;;;3.25;;
23179;SDS011;11758;45.756;11.432;2023-09-19T14:40:42;7.60;;;4.18;;
23179;SDS011;11758;45.756;11.432;2023-09-19T14:43:09;11.85;;;5.10;;
23179;SDS011;11758;45.756;11.432;2023-09-19T14:45:38;8.15;;;4.32;;
23179;SDS011;11758;45.756;11.432;2023-09-19T14:48:05;7.55;;;4.25;;
23179;SDS011;11758;45.756;11.432;2023-09-19T14:50:32;6.45;;;4.35;;
23179;SDS011;11758;45.756;11.432;2023-09-19T14:52:58;10.57;;;4.80;;
23179;SDS011;11758;45.756;11.432;2023-09-19T14:55:27;8.27;;;4.30;;
23179;SDS011;11758;45.756;11.432;2023-09-19T14:57:54;11.68;;;4.32;;
23179;SDS011;11758;45.756;11.432;2023-09-19T15:00:23;8.27;;;3.85;;
23179;SDS011;11758;45.756;11.432;2023-09-19T15:02:49;10.25;;;5.00;;
23179;SDS011;11758;45.756;11.432;2023-09-19T15:05:16;6.00;;;3.72;;
23179;SDS011;11758;45.756;11.432;2023-09-19T15:07:42;9.43;;;5.22;;
23179;SDS011;11758;45.756;11.432;2023-09-19T15:10:09;8.18;;;3.80;;
23179;SDS011;11758;45.756;11.432;2023-09-19T15:12:38;9.73;;;5.05;;
23179;SDS011;11758;45.756;11.432;2023-09-19T15:15:05;10.63;;;5.65;;
23179;SDS011;11758;45.756;11.432;2023-09-19T15:17:35;11.25;;;5.25;;
23179;SDS011;11758;45.756;11.432;2023-09-19T15:20:01;8.43;;;5.38;;
23179;SDS011;11758;45.756;11.432;2023-09-19T15:22:27;10.65;;;5.68;;
23179;SDS011;11758;45.756;11.432;2023-09-19T15:24:54;9.55;;;5.28;;
23179;SDS011;11758;45.756;11.432;2023-09-19T15:27:21;11.30;;;4.55;;